createdAt,value
2024-04-13T00:00:29.429Z,27.80333
2024-04-13T00:01:29.543Z,27.80333
2024-04-13T00:02:29.654Z,27.80333
2024-04-13T00:03:29.775Z,27.80333
2024-04-13T00:04:29.830Z,27.80333
2024-04-13T00:05:29.971Z,27.80333
2024-04-13T00:06:30.090Z,27.80333
2024-04-13T00:07:30.217Z,27.80333
2024-04-13T00:08:30.380Z,27.80333
2024-04-13T00:09:30.519Z,27.80333
2024-04-13T00:10:30.631Z,27.82722
2024-04-13T00:11:30.728Z,27.82722
2024-04-13T00:12:30.930Z,27.82722
2024-04-13T00:13:30.982Z,27.82722
2024-04-13T00:14:31.084Z,27.82722
2024-04-13T00:15:31.243Z,27.82722
2024-04-13T00:16:31.391Z,27.82722
2024-04-13T00:17:31.559Z,27.82722
2024-04-13T00:18:31.606Z,27.82722
2024-04-13T00:19:31.745Z,27.82722
2024-04-13T00:20:31.849Z,27.86
2024-04-13T00:21:32.042Z,27.86
2024-04-13T00:22:32.096Z,27.86
2024-04-13T00:23:32.252Z,27.86
2024-04-13T00:24:32.439Z,27.86
2024-04-13T00:25:32.456Z,27.86
2024-04-13T00:26:32.599Z,27.86
2024-04-13T00:27:32.731Z,27.86
2024-04-13T00:28:32.809Z,27.86
2024-04-13T00:29:32.915Z,27.86
2024-04-13T00:30:33.017Z,27.89056
2024-04-13T00:31:33.130Z,27.89056
2024-04-13T00:32:33.301Z,27.89056
2024-04-13T00:33:33.426Z,27.89056
2024-04-13T00:34:33.523Z,27.89056
2024-04-13T00:35:33.619Z,27.89056
2024-04-13T00:36:33.798Z,27.89056
2024-04-13T00:37:34.367Z,27.89056
2024-04-13T00:38:33.999Z,27.89056
2024-04-13T00:39:34.149Z,27.89056
2024-04-13T00:40:34.286Z,27.91833
2024-04-13T00:41:34.381Z,27.91833
2024-04-13T00:42:34.565Z,27.91833
2024-04-13T00:43:34.655Z,27.91833
2024-04-13T00:44:34.797Z,27.91833
2024-04-13T00:45:34.949Z,27.91833
2024-04-13T00:46:35.062Z,27.91833
2024-04-13T00:47:35.191Z,27.91833
2024-04-13T00:48:35.327Z,27.91833
2024-04-13T00:49:35.407Z,27.91833
2024-04-13T00:50:35.514Z,27.94389
2024-04-13T00:51:35.784Z,27.94389
2024-04-13T00:52:35.779Z,27.94389
2024-04-13T00:53:35.901Z,27.94389
2024-04-13T00:54:36.068Z,27.94389
2024-04-13T00:55:36.152Z,27.94389
2024-04-13T00:56:36.266Z,27.94389
2024-04-13T00:57:36.492Z,27.94389
2024-04-13T00:58:36.512Z,27.94389
2024-04-13T00:59:38.718Z,27.94389
2024-04-13T01:00:36.946Z,27.96834
2024-04-13T01:01:36.953Z,27.96834
2024-04-13T01:02:37.017Z,27.96834
2024-04-13T01:03:37.380Z,27.96834
2024-04-13T01:04:37.226Z,27.96834
2024-04-13T01:05:37.317Z,27.96834
2024-04-13T01:06:37.478Z,27.96834
2024-04-13T01:07:37.696Z,27.96834
2024-04-13T01:08:37.774Z,27.96834
2024-04-13T01:09:37.928Z,27.96834
2024-04-13T01:10:38.028Z,27.99278
2024-04-13T01:11:38.196Z,27.99278
2024-04-13T01:12:38.256Z,27.99278
2024-04-13T01:13:38.388Z,27.99278
2024-04-13T01:14:38.574Z,27.99278
2024-04-13T01:15:38.640Z,27.99278
2024-04-13T01:16:38.745Z,27.99278
2024-04-13T01:17:38.912Z,27.99278
2024-04-13T01:18:38.967Z,27.99278
2024-04-13T01:19:39.059Z,27.99278
2024-04-13T01:20:39.147Z,28.01778
2024-04-13T01:21:39.274Z,28.01778
2024-04-13T01:22:39.358Z,28.01778
2024-04-13T01:23:39.504Z,28.01778
2024-04-13T01:24:39.681Z,28.01778
2024-04-13T01:25:39.754Z,28.01778
2024-04-13T01:26:40.072Z,28.01778
2024-04-13T01:27:39.966Z,28.01778
2024-04-13T01:28:40.058Z,28.01778
2024-04-13T01:29:40.213Z,28.01778
2024-04-13T01:30:40.404Z,28.04389
2024-04-13T01:31:40.471Z,28.04389
2024-04-13T01:32:40.630Z,28.04389
2024-04-13T01:33:40.881Z,28.04389
2024-04-13T01:34:40.822Z,28.04389
2024-04-13T01:35:40.942Z,28.04389
2024-04-13T01:36:41.119Z,28.04389
2024-04-13T01:37:41.131Z,28.04389
2024-04-13T01:38:41.280Z,28.04389
2024-04-13T01:39:41.452Z,28.04389
2024-04-13T01:40:41.543Z,28.07278
2024-04-13T01:41:41.634Z,28.07278
2024-04-13T01:42:41.735Z,28.07278
2024-04-13T01:43:41.896Z,28.07278
2024-04-13T01:44:42.036Z,28.07278
2024-04-13T01:45:42.221Z,28.07278
2024-04-13T01:46:42.295Z,28.07278
2024-04-13T01:47:42.431Z,28.07278
2024-04-13T01:48:42.545Z,28.07278
2024-04-13T01:49:42.599Z,28.07278
2024-04-13T01:50:42.699Z,28.10111
2024-04-13T01:51:42.879Z,28.10111
2024-04-13T01:52:43.001Z,28.10111
2024-04-13T01:53:43.104Z,28.10111
2024-04-13T01:54:43.257Z,28.10111
2024-04-13T01:55:43.330Z,28.10111
2024-04-13T01:56:43.461Z,28.10111
2024-04-13T01:57:43.613Z,28.10111
2024-04-13T01:58:43.766Z,28.10111
2024-04-13T01:59:43.874Z,28.10111
2024-04-13T02:00:44.169Z,28.12834
2024-04-13T02:01:44.143Z,28.12834
2024-04-13T02:02:44.218Z,28.12834
2024-04-13T02:03:44.437Z,28.12834
2024-04-13T02:04:44.477Z,28.12834
2024-04-13T02:05:44.582Z,28.12834
2024-04-13T02:06:44.765Z,28.12834
2024-04-13T02:07:44.837Z,28.12834
2024-04-13T02:08:44.928Z,28.12834
2024-04-13T02:09:45.086Z,28.12834
2024-04-13T02:10:45.255Z,28.15833
2024-04-13T02:11:45.337Z,28.15833
2024-04-13T02:12:45.489Z,28.15833
2024-04-13T02:13:45.614Z,28.15833
2024-04-13T02:14:45.703Z,28.15833
2024-04-13T02:15:45.859Z,28.15833
2024-04-13T02:16:45.951Z,28.15833
2024-04-13T02:17:46.148Z,28.15833
2024-04-13T02:18:46.302Z,28.15833
2024-04-13T02:19:46.308Z,28.15833
2024-04-13T02:20:46.418Z,28.18556
2024-04-13T02:21:46.553Z,28.18556
2024-04-13T02:22:46.699Z,28.18556
2024-04-13T02:23:46.806Z,28.18556
2024-04-13T02:24:46.951Z,28.18556
2024-04-13T02:25:47.108Z,28.18556
2024-04-13T02:26:47.262Z,28.18556
2024-04-13T02:27:47.411Z,28.18556
2024-04-13T02:28:47.576Z,28.18556
2024-04-13T02:29:47.669Z,28.18556
2024-04-13T02:30:47.772Z,28.20889
2024-04-13T02:31:47.919Z,28.20889
2024-04-13T02:32:48.070Z,28.20889
2024-04-13T02:33:48.230Z,28.20889
2024-04-13T02:34:48.231Z,28.20889
2024-04-13T02:35:48.380Z,28.20889
2024-04-13T02:36:48.565Z,28.20889
2024-04-13T02:37:48.636Z,28.20889
2024-04-13T02:38:48.802Z,28.20889
2024-04-13T02:39:48.888Z,28.20889
2024-04-13T02:40:48.994Z,28.23167
2024-04-13T02:41:49.148Z,28.23167
2024-04-13T02:42:49.243Z,28.23167
2024-04-13T02:43:49.400Z,28.23167
2024-04-13T02:44:49.493Z,28.23167
2024-04-13T02:45:49.596Z,28.23167
2024-04-13T02:46:49.759Z,28.23167
2024-04-13T02:47:49.904Z,28.23167
2024-04-13T02:48:50.007Z,28.23167
2024-04-13T02:49:50.113Z,28.23167
2024-04-13T02:50:50.258Z,28.25
2024-04-13T02:51:50.419Z,28.25
2024-04-13T02:52:50.507Z,28.25
2024-04-13T02:53:50.659Z,28.25
2024-04-13T02:54:50.812Z,28.25
2024-04-13T02:55:50.918Z,28.25
2024-04-13T02:56:51.026Z,28.25
2024-04-13T02:57:51.112Z,28.25
2024-04-13T02:58:51.250Z,28.25
2024-04-13T02:59:51.371Z,28.25
2024-04-13T03:00:51.516Z,28.26222
2024-04-13T03:01:51.574Z,28.26222
2024-04-13T03:02:51.758Z,28.26222
2024-04-13T03:03:51.917Z,28.26222
2024-04-13T03:04:52.027Z,28.26222
2024-04-13T03:05:52.126Z,28.26222
2024-04-13T03:06:52.231Z,28.26222
2024-04-13T03:07:52.344Z,28.26222
2024-04-13T03:08:52.436Z,28.26222
2024-04-13T03:09:52.588Z,28.26222
2024-04-13T03:10:52.686Z,28.27611
2024-04-13T03:11:52.793Z,28.27611
2024-04-13T03:12:52.939Z,28.27611
2024-04-13T03:13:53.100Z,28.27611
2024-04-13T03:14:53.204Z,28.27611
2024-04-13T03:15:53.300Z,28.27611
2024-04-13T03:16:53.471Z,28.27611
2024-04-13T03:17:53.629Z,28.27611
2024-04-13T03:18:53.783Z,28.27611
2024-04-13T03:19:53.862Z,28.27611
2024-04-13T03:20:54.005Z,28.29167
2024-04-13T03:21:54.153Z,28.29167
2024-04-13T03:22:54.315Z,28.29167
2024-04-13T03:23:54.409Z,28.29167
2024-04-13T03:24:54.518Z,28.29167
2024-04-13T03:25:54.619Z,28.29167
2024-04-13T03:26:54.713Z,28.29167
2024-04-13T03:27:54.828Z,28.29167
2024-04-13T03:28:54.919Z,28.29167
2024-04-13T03:29:55.074Z,28.29167
2024-04-13T03:30:55.186Z,28.30778
2024-04-13T03:31:55.281Z,28.30778
2024-04-13T03:32:55.429Z,28.30778
2024-04-13T03:33:55.623Z,28.30778
2024-04-13T03:34:55.677Z,28.30778
2024-04-13T03:35:55.779Z,28.30778
2024-04-13T03:36:55.936Z,28.30778
2024-04-13T03:37:56.090Z,28.30778
2024-04-13T03:38:56.189Z,28.30778
2024-04-13T03:39:56.289Z,28.30778
2024-04-13T03:40:56.444Z,28.32611
2024-04-13T03:41:56.545Z,28.32611
2024-04-13T03:42:56.644Z,28.32611
2024-04-13T03:43:56.745Z,28.32611
2024-04-13T03:44:56.893Z,28.32611
2024-04-13T03:45:56.999Z,28.32611
2024-04-13T03:46:57.096Z,28.32611
2024-04-13T03:47:57.227Z,28.32611
2024-04-13T03:48:57.341Z,28.32611
2024-04-13T03:49:57.457Z,28.32611
2024-04-13T03:50:57.559Z,28.34444
2024-04-13T03:51:57.748Z,28.34444
2024-04-13T03:52:57.862Z,28.34444
2024-04-13T03:53:58.069Z,28.34444
2024-04-13T03:54:58.171Z,28.34444
2024-04-13T03:55:58.265Z,28.34444
2024-04-13T03:56:58.371Z,28.34444
2024-04-13T03:57:58.522Z,28.34444
2024-04-13T03:58:58.626Z,28.34444
2024-04-13T03:59:58.779Z,28.34444
2024-04-13T04:00:58.914Z,28.36389
2024-04-13T04:01:59.043Z,28.36389
2024-04-13T04:02:59.182Z,28.36389
2024-04-13T04:03:59.336Z,28.36389
2024-04-13T04:04:59.387Z,28.36389
2024-04-13T04:05:59.489Z,28.36389
2024-04-13T04:06:59.596Z,28.36389
2024-04-13T04:07:59.712Z,28.36389
2024-04-13T04:08:59.807Z,28.36389
2024-04-13T04:09:59.940Z,28.36389
2024-04-13T04:11:00.106Z,28.38333
2024-04-13T04:12:00.200Z,28.38333
2024-04-13T04:13:00.354Z,28.38333
2024-04-13T04:14:00.513Z,28.38333
2024-04-13T04:15:00.645Z,28.38333
2024-04-13T04:16:00.750Z,28.38333
2024-04-13T04:17:00.907Z,28.38333
2024-04-13T04:18:01.069Z,28.38333
2024-04-13T04:19:01.184Z,28.38333
2024-04-13T04:20:01.211Z,28.40334
2024-04-13T04:21:01.378Z,28.40334
2024-04-13T04:22:01.477Z,28.40334
2024-04-13T04:23:01.570Z,28.40334
2024-04-13T04:24:01.710Z,28.40334
2024-04-13T04:25:01.870Z,28.40334
2024-04-13T04:26:01.969Z,28.40334
2024-04-13T04:27:02.079Z,28.40334
2024-04-13T04:28:02.170Z,28.40334
2024-04-13T04:29:02.272Z,28.40334
2024-04-13T04:30:02.484Z,28.425
2024-04-13T04:31:02.531Z,28.425
2024-04-13T04:32:02.697Z,28.425
2024-04-13T04:33:02.776Z,28.425
2024-04-13T04:34:02.897Z,28.425
2024-04-13T04:35:02.998Z,28.425
2024-04-13T04:36:03.091Z,28.425
2024-04-13T04:37:03.238Z,28.425
2024-04-13T04:38:03.339Z,28.425
2024-04-13T04:39:03.491Z,28.425
2024-04-13T04:40:03.649Z,28.44667
2024-04-13T04:41:03.802Z,28.44667
2024-04-13T04:42:03.948Z,28.44667
2024-04-13T04:43:04.055Z,28.44667
2024-04-13T04:44:04.218Z,28.44667
2024-04-13T04:45:04.348Z,28.44667
2024-04-13T04:46:04.459Z,28.44667
2024-04-13T04:47:04.556Z,28.44667
2024-04-13T04:48:04.805Z,28.44667
2024-04-13T04:49:04.879Z,28.44667
2024-04-13T04:50:05.258Z,28.46944
2024-04-13T04:51:05.205Z,28.46944
2024-04-13T04:52:05.260Z,28.46944
2024-04-13T04:53:05.423Z,28.46944
2024-04-13T04:54:05.589Z,28.46944
2024-04-13T04:55:05.671Z,28.46944
2024-04-13T04:56:05.820Z,28.46944
2024-04-13T04:57:05.960Z,28.46944
2024-04-13T04:58:06.075Z,28.46944
2024-04-13T04:59:06.308Z,28.46944
2024-04-13T05:00:06.433Z,28.48945
2024-04-13T05:01:06.412Z,28.48945
2024-04-13T05:02:06.496Z,28.48945
2024-04-13T05:03:06.649Z,28.48945
2024-04-13T05:04:06.798Z,28.48945
2024-04-13T05:05:06.884Z,28.48945
2024-04-13T05:06:07.147Z,28.48945
2024-04-13T05:07:07.136Z,28.48945
2024-04-13T05:08:07.257Z,28.48945
2024-04-13T05:09:07.404Z,28.48945
2024-04-13T05:10:07.572Z,28.50667
2024-04-13T05:11:07.677Z,28.50667
2024-04-13T05:12:07.725Z,28.50667
2024-04-13T05:13:07.815Z,28.50667
2024-04-13T05:14:08.423Z,28.50667
2024-04-13T05:15:08.086Z,28.50667
2024-04-13T05:16:08.153Z,28.50667
2024-04-13T05:17:08.274Z,28.50667
2024-04-13T05:18:08.501Z,28.50667
2024-04-13T05:19:08.656Z,28.50667
2024-04-13T05:20:08.629Z,28.52389
2024-04-13T05:21:08.749Z,28.52389
2024-04-13T05:22:08.873Z,28.52389
2024-04-13T05:23:08.965Z,28.52389
2024-04-13T05:24:09.098Z,28.52389
2024-04-13T05:25:09.223Z,28.52389
2024-04-13T05:26:09.327Z,28.52389
2024-04-13T05:27:09.514Z,28.52389
2024-04-13T05:28:09.577Z,28.52389
2024-04-13T05:29:09.683Z,28.52389
2024-04-13T05:30:09.798Z,28.53944
2024-04-13T05:31:09.900Z,28.53944
2024-04-13T05:32:10.033Z,28.53944
2024-04-13T05:33:10.220Z,28.53944
2024-04-13T05:34:10.295Z,28.53944
2024-04-13T05:35:10.387Z,28.53944
2024-04-13T05:36:10.524Z,28.53944
2024-04-13T05:37:10.590Z,28.53944
2024-04-13T05:38:10.742Z,28.53944
2024-04-13T05:39:10.907Z,28.53944
2024-04-13T05:40:11.047Z,28.55722
2024-04-13T05:41:11.155Z,28.55722
2024-04-13T05:42:11.328Z,28.55722
2024-04-13T05:43:13.118Z,28.55722
2024-04-13T05:44:11.499Z,28.55722
2024-04-13T05:45:11.688Z,28.55722
2024-04-13T05:46:11.842Z,28.55722
2024-04-13T05:47:11.957Z,28.55722
2024-04-13T05:48:12.162Z,28.55722
2024-04-13T05:49:12.265Z,28.55722
2024-04-13T05:50:12.367Z,28.57556
2024-04-13T05:51:12.479Z,28.57556
2024-04-13T05:52:12.572Z,28.57556
2024-04-13T05:53:12.721Z,28.57556
2024-04-13T05:54:12.900Z,28.57556
2024-04-13T05:55:12.987Z,28.57556
2024-04-13T05:56:13.075Z,28.57556
2024-04-13T05:57:13.228Z,28.57556
2024-04-13T05:58:14.112Z,28.57556
2024-04-13T05:59:13.493Z,28.57556
2024-04-13T06:00:13.676Z,28.59
2024-04-13T06:01:13.838Z,28.59
2024-04-13T06:02:13.935Z,28.59
2024-04-13T06:03:14.115Z,28.59
2024-04-13T06:04:14.154Z,28.59
2024-04-13T06:05:14.286Z,28.59
2024-04-13T06:06:14.413Z,28.59
2024-04-13T06:07:14.542Z,28.59
2024-04-13T06:08:14.644Z,28.59
2024-04-13T06:09:14.756Z,28.59
2024-04-13T06:10:14.860Z,28.605
2024-04-13T06:11:15.032Z,28.605
2024-04-13T06:12:15.108Z,28.605
2024-04-13T06:13:15.203Z,28.605
2024-04-13T06:14:15.362Z,28.605
2024-04-13T06:15:15.546Z,28.605
2024-04-13T06:16:15.624Z,28.605
2024-04-13T06:17:15.717Z,28.605
2024-04-13T06:18:15.893Z,28.605
2024-04-13T06:19:15.971Z,28.605
2024-04-13T06:20:16.120Z,28.62112
2024-04-13T06:21:16.292Z,28.62112
2024-04-13T06:22:16.366Z,28.62112
2024-04-13T06:23:16.482Z,28.62112
2024-04-13T06:24:16.609Z,28.62112
2024-04-13T06:25:16.673Z,28.62112
2024-04-13T06:26:16.772Z,28.62112
2024-04-13T06:27:16.878Z,28.62112
2024-04-13T06:28:16.984Z,28.62112
2024-04-13T06:29:17.083Z,28.62112
2024-04-13T06:30:17.280Z,28.62611
2024-04-13T06:31:17.336Z,28.62611
2024-04-13T06:32:17.502Z,28.62611
2024-04-13T06:33:17.750Z,28.62611
2024-04-13T06:34:17.824Z,28.62611
2024-04-13T06:35:17.896Z,28.62611
2024-04-13T06:36:18.015Z,28.62611
2024-04-13T06:37:18.150Z,28.62611
2024-04-13T06:38:18.303Z,28.62611
2024-04-13T06:39:18.438Z,28.62611
2024-04-13T06:40:18.512Z,28.62278
2024-04-13T06:41:18.607Z,28.62278
2024-04-13T06:42:20.681Z,28.62278
2024-04-13T06:43:18.816Z,28.62278
2024-04-13T06:44:18.968Z,28.62278
2024-04-13T06:45:19.094Z,28.62278
2024-04-13T06:46:19.180Z,28.62278
2024-04-13T06:47:19.361Z,28.62278
2024-04-13T06:48:19.505Z,28.62278
2024-04-13T06:49:19.529Z,28.62278
2024-04-13T06:50:19.670Z,28.61222
2024-04-13T06:51:19.829Z,28.61222
2024-04-13T06:52:19.967Z,28.61222
2024-04-13T06:53:20.129Z,28.61222
2024-04-13T06:54:20.288Z,28.61222
2024-04-13T06:55:20.435Z,28.61222
2024-04-13T06:56:20.541Z,28.61222
2024-04-13T06:57:20.651Z,28.61222
2024-04-13T06:58:20.781Z,28.61222
2024-04-13T06:59:20.890Z,28.61222
2024-04-13T07:00:21.076Z,28.60944
2024-04-13T07:01:21.234Z,28.60944
2024-04-13T07:02:21.334Z,28.60944
2024-04-13T07:03:21.563Z,28.60944
2024-04-13T07:04:21.646Z,28.60944
2024-04-13T07:05:21.695Z,28.60944
2024-04-13T07:06:21.821Z,28.60944
2024-04-13T07:07:21.952Z,28.60944
2024-04-13T07:08:22.048Z,28.60944
2024-04-13T07:09:22.384Z,28.60944
2024-04-13T07:10:22.319Z,28.60056
2024-04-13T07:11:22.454Z,28.60056
2024-04-13T07:12:22.602Z,28.60056
2024-04-13T07:13:22.714Z,28.60056
2024-04-13T07:14:22.813Z,28.60056
2024-04-13T07:15:22.937Z,28.60056
2024-04-13T07:16:23.022Z,28.60056
2024-04-13T07:17:23.122Z,28.60056
2024-04-13T07:18:23.274Z,28.60056
2024-04-13T07:19:23.321Z,28.60056
2024-04-13T07:20:23.428Z,28.60167
2024-04-13T07:21:23.541Z,28.60167
2024-04-13T07:22:23.686Z,28.60167
2024-04-13T07:23:23.776Z,28.60167
2024-04-13T07:24:23.904Z,28.60167
2024-04-13T07:25:24.043Z,28.60167
2024-04-13T07:26:24.136Z,28.60167
2024-04-13T07:27:24.252Z,28.60167
2024-04-13T07:28:24.331Z,28.60167
2024-04-13T07:29:24.438Z,28.60167
2024-04-13T07:30:24.614Z,28.61944
2024-04-13T07:31:24.739Z,28.61944
2024-04-13T07:32:24.968Z,28.61944
2024-04-13T07:33:25.070Z,28.61944
2024-04-13T07:34:25.146Z,28.61944
2024-04-13T07:35:25.247Z,28.61944
2024-04-13T07:36:25.379Z,28.61944
2024-04-13T07:37:25.501Z,28.61944
2024-04-13T07:38:25.598Z,28.61944
2024-04-13T07:39:25.710Z,28.61944
2024-04-13T07:40:25.803Z,28.63
2024-04-13T07:41:25.958Z,28.63
2024-04-13T07:42:26.079Z,28.63
2024-04-13T07:43:26.208Z,28.63
2024-04-13T07:44:26.307Z,28.63
2024-04-13T07:45:26.465Z,28.63
2024-04-13T07:46:26.572Z,28.63
2024-04-13T07:47:26.688Z,28.63
2024-04-13T07:48:26.855Z,28.63
2024-04-13T07:49:26.873Z,28.63
2024-04-13T07:50:27.032Z,28.65722
2024-04-13T07:51:27.176Z,28.65722
2024-04-13T07:52:27.284Z,28.65722
2024-04-13T07:53:27.379Z,28.65722
2024-04-13T07:54:27.562Z,28.65722
2024-04-13T07:55:27.628Z,28.65722
2024-04-13T07:56:27.736Z,28.65722
2024-04-13T07:57:27.858Z,28.65722
2024-04-13T07:58:27.989Z,28.65722
2024-04-13T07:59:28.098Z,28.65722
2024-04-13T08:00:28.213Z,28.67667
2024-04-13T08:01:28.350Z,28.67667
2024-04-13T08:02:28.494Z,28.67667
2024-04-13T08:03:28.639Z,28.67667
2024-04-13T08:04:28.789Z,28.67667
2024-04-13T08:05:28.860Z,28.67667
2024-04-13T08:06:28.984Z,28.67667
2024-04-13T08:07:29.098Z,28.67667
2024-04-13T08:08:29.255Z,28.67667
2024-04-13T08:09:29.382Z,28.67667
2024-04-13T08:10:29.522Z,28.90056
2024-04-13T08:11:29.659Z,28.90056
2024-04-13T08:12:29.818Z,28.90056
2024-04-13T08:13:29.942Z,28.90056
2024-04-13T08:14:30.062Z,28.90056
2024-04-13T08:15:30.203Z,28.90056
2024-04-13T08:16:30.283Z,28.90056
2024-04-13T08:17:30.371Z,28.90056
2024-04-13T08:18:30.533Z,28.90056
2024-04-13T08:19:30.640Z,28.90056
2024-04-13T08:20:30.829Z,29.26111
2024-04-13T08:21:30.957Z,29.26111
2024-04-13T08:22:31.053Z,29.26111
2024-04-13T08:23:31.185Z,29.26111
2024-04-13T08:24:31.318Z,29.26111
2024-04-13T08:25:31.394Z,29.26111
2024-04-13T08:26:31.494Z,29.26111
2024-04-13T08:27:33.197Z,29.26111
2024-04-13T08:28:31.754Z,29.26111
2024-04-13T08:29:31.888Z,29.26111
2024-04-13T08:30:32.076Z,29.63167
2024-04-13T08:31:32.240Z,29.63167
2024-04-13T08:32:32.370Z,29.63167
2024-04-13T08:33:32.452Z,29.63167
2024-04-13T08:34:32.597Z,29.63167
2024-04-13T08:35:32.750Z,29.63167
2024-04-13T08:36:32.955Z,29.63167
2024-04-13T08:37:33.018Z,29.63167
2024-04-13T08:38:33.116Z,29.63167
2024-04-13T08:39:33.263Z,29.63167
2024-04-13T08:40:33.409Z,29.97834
2024-04-13T08:41:33.510Z,29.97834
2024-04-13T08:42:33.631Z,29.97834
2024-04-13T08:43:33.762Z,29.97834
2024-04-13T08:44:33.911Z,29.97834
2024-04-13T08:45:34.115Z,29.97834
2024-04-13T08:46:34.166Z,29.97834
2024-04-13T08:47:34.377Z,29.97834
2024-04-13T08:48:34.521Z,29.97834
2024-04-13T08:49:34.665Z,29.97834
2024-04-13T08:50:34.774Z,30.09722
2024-04-13T08:51:34.934Z,30.09722
2024-04-13T08:52:34.983Z,30.09722
2024-04-13T08:53:35.132Z,30.09722
2024-04-13T08:54:35.323Z,30.09722
2024-04-13T08:55:35.387Z,30.09722
2024-04-13T08:56:35.492Z,30.09722
2024-04-13T08:57:35.618Z,30.09722
2024-04-13T08:58:35.704Z,30.09722
2024-04-13T08:59:35.844Z,30.09722
2024-04-13T09:00:36.019Z,30.12
2024-04-13T09:01:36.224Z,30.12
2024-04-13T09:02:36.223Z,30.12
2024-04-13T09:03:36.384Z,30.12
2024-04-13T09:04:36.403Z,30.12
2024-04-13T09:05:36.554Z,30.12
2024-04-13T09:06:36.723Z,30.12
2024-04-13T09:07:36.779Z,30.12
2024-04-13T09:08:36.919Z,30.12
2024-04-13T09:09:37.081Z,30.12
2024-04-13T09:10:37.213Z,30.4
2024-04-13T09:11:37.363Z,30.4
2024-04-13T09:12:37.437Z,30.4
2024-04-13T09:13:39.283Z,30.4
2024-04-13T09:14:37.620Z,30.4
2024-04-13T09:15:37.813Z,30.4
2024-04-13T09:16:37.876Z,30.4
2024-04-13T09:17:38.073Z,30.4
2024-04-13T09:18:38.240Z,30.4
2024-04-13T09:19:38.230Z,30.4
2024-04-13T09:20:38.389Z,30.47834
2024-04-13T09:21:38.503Z,30.47834
2024-04-13T09:22:38.588Z,30.47834
2024-04-13T09:23:38.752Z,30.47834
2024-04-13T09:24:38.863Z,30.47834
2024-04-13T09:25:38.991Z,30.47834
2024-04-13T09:26:39.088Z,30.47834
2024-04-13T09:27:39.240Z,30.47834
2024-04-13T09:28:39.354Z,30.47834
2024-04-13T09:29:39.495Z,30.47834
2024-04-13T09:30:39.681Z,30.47389
2024-04-13T09:31:39.749Z,30.47389
2024-04-13T09:32:39.966Z,30.47389
2024-04-13T09:33:40.003Z,30.47389
2024-04-13T09:34:40.078Z,30.47389
2024-04-13T09:35:40.220Z,30.47389
2024-04-13T09:36:40.534Z,30.47389
2024-04-13T09:37:40.418Z,30.47389
2024-04-13T09:38:40.566Z,30.47389
2024-04-13T09:39:40.755Z,30.47389
2024-04-13T09:40:40.869Z,30.49889
2024-04-13T09:41:40.974Z,30.49889
2024-04-13T09:42:41.122Z,30.49889
2024-04-13T09:43:41.215Z,30.49889
2024-04-13T09:44:41.327Z,30.49889
2024-04-13T09:45:41.435Z,30.49889
2024-04-13T09:46:41.586Z,30.49889
2024-04-13T09:47:41.776Z,30.49889
2024-04-13T09:48:41.901Z,30.49889
2024-04-13T09:49:41.989Z,30.49889
2024-04-13T09:50:42.126Z,30.48278
2024-04-13T09:51:42.312Z,30.48278
2024-04-13T09:52:42.378Z,30.48278
2024-04-13T09:53:42.481Z,30.48278
2024-04-13T09:54:42.621Z,30.48278
2024-04-13T09:55:42.690Z,30.48278
2024-04-13T09:56:42.790Z,30.48278
2024-04-13T09:57:42.951Z,30.48278
2024-04-13T09:58:42.999Z,30.48278
2024-04-13T09:59:43.103Z,30.48278
2024-04-13T10:00:43.303Z,30.49889
2024-04-13T10:01:43.475Z,30.49889
2024-04-13T10:02:43.550Z,30.49889
2024-04-13T10:03:43.624Z,30.49889
2024-04-13T10:04:43.708Z,30.49889
2024-04-13T10:05:43.861Z,30.49889
2024-04-13T10:06:44.012Z,30.49889
2024-04-13T10:07:44.109Z,30.49889
2024-04-13T10:08:44.265Z,30.49889
2024-04-13T10:09:44.383Z,30.49889
2024-04-13T10:10:44.464Z,30.53334
2024-04-13T10:11:44.626Z,30.53334
2024-04-13T10:12:44.727Z,30.53334
2024-04-13T10:13:44.872Z,30.53334
2024-04-13T10:14:45.022Z,30.53334
2024-04-13T10:15:45.194Z,30.53334
2024-04-13T10:16:45.333Z,30.53334
2024-04-13T10:17:45.501Z,30.53334
2024-04-13T10:18:45.716Z,30.53334
2024-04-13T10:19:46.131Z,30.53334
2024-04-13T10:21:46.054Z,30.49444
2024-04-13T10:22:46.088Z,30.49444
2024-04-13T10:23:46.185Z,30.49444
2024-04-13T10:24:48.227Z,30.49444
2024-04-13T10:25:46.504Z,30.49444
2024-04-13T10:26:46.979Z,30.49444
2024-04-13T10:28:46.812Z,30.49444
2024-04-13T10:29:47.336Z,30.49444
2024-04-13T10:31:47.254Z,30.49722
2024-04-13T10:32:47.736Z,30.49722
2024-04-13T10:34:47.633Z,30.49722
2024-04-13T10:35:48.142Z,30.49722
2024-04-13T10:37:48.040Z,30.49722
2024-04-13T10:38:48.538Z,30.49722
2024-04-13T10:40:48.478Z,30.47611
2024-04-13T10:41:48.933Z,30.47611
2024-04-13T10:43:48.836Z,30.47611
2024-04-13T10:44:49.314Z,30.47611
2024-04-13T10:46:49.192Z,30.47611
2024-04-13T10:47:49.758Z,30.47611
2024-04-13T10:48:49.462Z,30.47611
2024-04-13T10:49:54.690Z,30.47611
2024-04-13T10:50:49.959Z,30.43833
2024-04-13T10:52:49.900Z,30.43833
2024-04-13T10:53:50.373Z,30.43833
2024-04-13T10:55:50.269Z,30.43833
2024-04-13T10:56:52.523Z,30.43833
2024-04-13T10:58:50.726Z,30.43833
2024-04-13T10:59:51.175Z,30.43833
2024-04-13T11:01:51.062Z,30.42444
2024-04-13T11:02:51.641Z,30.42444
2024-04-13T11:04:51.488Z,30.42444
2024-04-13T11:05:52.207Z,30.42444
2024-04-13T11:07:51.879Z,30.42444
2024-04-13T11:08:52.392Z,30.42444
2024-04-13T11:10:52.275Z,30.40833
2024-04-13T11:11:52.859Z,30.40833
2024-04-13T11:13:52.712Z,30.40833
2024-04-13T11:14:53.208Z,30.40833
2024-04-13T11:15:53.000Z,30.40833
2024-04-13T11:16:53.044Z,30.40833
2024-04-13T11:17:53.618Z,30.40833
2024-04-13T11:19:53.416Z,30.40833
2024-04-13T11:20:53.798Z,30.41611
2024-04-13T11:22:53.750Z,30.41611
2024-04-13T11:23:54.237Z,30.41611
2024-04-13T11:25:54.124Z,30.41611
2024-04-13T11:26:54.612Z,30.41611
2024-04-13T11:28:54.477Z,30.41611
2024-04-13T11:29:54.911Z,30.41611
2024-04-13T11:31:54.920Z,30.42222
2024-04-13T11:32:55.452Z,30.42222
2024-04-13T11:34:55.340Z,30.42222
2024-04-13T11:35:55.903Z,30.42222
2024-04-13T11:36:55.623Z,30.42222
2024-04-13T11:37:55.774Z,30.42222
2024-04-13T11:38:56.188Z,30.42222
2024-04-13T11:40:56.200Z,30.42389
2024-04-13T11:41:56.741Z,30.42389
2024-04-13T11:43:56.595Z,30.42389
2024-04-13T11:44:57.063Z,30.42389
2024-04-13T11:46:56.990Z,30.42389
2024-04-13T11:47:57.483Z,30.42389
2024-04-13T11:49:57.399Z,30.42389
2024-04-13T11:50:57.910Z,30.42833
2024-04-13T11:52:57.827Z,30.42833
2024-04-13T11:53:58.407Z,30.42833
2024-04-13T11:55:58.207Z,30.42833
2024-04-13T11:56:58.624Z,30.42833
2024-04-13T11:58:58.620Z,30.42833
2024-04-13T11:59:59.759Z,30.42833
2024-04-13T12:01:59.029Z,30.44611
2024-04-13T12:02:59.556Z,30.44611
2024-04-13T12:04:59.440Z,30.44611
2024-04-13T12:06:01.601Z,30.44611
2024-04-13T12:07:59.886Z,30.44611
2024-04-13T12:09:00.419Z,30.44611
2024-04-13T12:11:00.334Z,30.45833
2024-04-13T12:12:02.354Z,30.45833
2024-04-13T12:14:00.651Z,30.45833
2024-04-13T12:15:00.742Z,30.45833
2024-04-13T12:16:01.199Z,30.45833
2024-04-13T12:18:01.152Z,30.45833
2024-04-13T12:19:01.600Z,30.45833
2024-04-13T12:20:01.375Z,30.45833
2024-04-13T12:21:01.519Z,30.47444
2024-04-13T12:22:02.013Z,30.47444
2024-04-13T12:24:02.157Z,30.47444
2024-04-13T12:25:02.444Z,30.47444
2024-04-13T12:27:02.360Z,30.47444
2024-04-13T12:28:02.878Z,30.47444
2024-04-13T12:30:02.797Z,30.47444
2024-04-13T12:31:03.267Z,30.48055